Time;durP1;ratioP1;P1;durP2;ratioP2;P2;SDS_P1;SDS_P2;PMS_P1;PMS_P2;Temp;Humidity;BMP_temperature;BMP_pressure;BME280_temperature;BME280_humidity;BME280_pressure;Samples;Min_cycle;Max_cycle;Signal;HPM_P1;HPM_P2
2022/08/09 00:01:15;;;;;;;1.35;1.25;;;18.20;69.70;;;;;;5111866;28;20051;-45
2022/08/09 00:03:41;;;;;;;4.68;1.50;;;18.20;69.60;;;;;;5112501;28;20098;-47
2022/08/09 00:06:07;;;;;;;3.88;1.45;;;18.20;69.70;;;;;;5113312;28;20020;-46
2022/08/09 00:08:33;;;;;;;3.05;2.05;;;18.10;69.80;;;;;;5111913;28;20081;-47
2022/08/09 00:11:00;;;;;;;5.13;1.50;;;18.10;69.70;;;;;;5113372;28;20023;-46
2022/08/09 00:13:26;;;;;;;6.97;1.80;;;18.20;69.90;;;;;;5113105;28;20016;-46
2022/08/09 00:15:52;;;;;;;3.55;2.13;;;18.10;69.90;;;;;;5113711;28;20024;-47
2022/08/09 00:18:17;;;;;;;4.65;1.80;;;18.20;69.90;;;;;;5115716;28;20072;-46
2022/08/09 00:20:43;;;;;;;3.95;1.80;;;18.10;70.00;;;;;;5116863;28;20019;-47
2022/08/09 00:23:09;;;;;;;3.53;1.80;;;18.00;70.30;;;;;;5117107;28;20030;-46
2022/08/09 00:25:34;;;;;;;2.05;1.85;;;17.90;70.70;;;;;;5116847;28;20155;-46
2022/08/09 00:28:00;;;;;;;3.10;1.55;;;17.90;71.00;;;;;;5116769;28;20023;-45
2022/08/09 00:30:26;;;;;;;2.03;1.83;;;17.80;71.20;;;;;;5116638;28;20043;-45
2022/08/09 00:32:51;;;;;;;1.60;1.33;;;17.80;71.40;;;;;;5116680;28;20031;-45
2022/08/09 00:35:17;;;;;;;4.60;1.88;;;17.80;71.60;;;;;;5116901;28;20366;-46
2022/08/09 00:37:43;;;;;;;3.95;1.95;;;17.80;71.70;;;;;;5115411;28;20067;-45
2022/08/09 00:40:09;;;;;;;1.67;1.40;;;17.80;72.00;;;;;;5116543;28;20479;-46
2022/08/09 00:42:35;;;;;;;3.55;2.17;;;17.70;72.10;;;;;;5116322;28;20092;-45
2022/08/09 00:45:03;;;;;;;7.50;2.95;;;17.80;72.10;;;;;;5115122;28;20031;-45
2022/08/09 00:47:29;;;;;;;5.90;2.67;;;17.80;72.10;;;;;;5116516;28;20024;-45
2022/08/09 00:49:54;;;;;;;1.92;1.75;;;17.70;72.30;;;;;;5116180;28;20050;-46
2022/08/09 00:52:21;;;;;;;5.88;2.00;;;17.70;72.40;;;;;;5116196;28;20020;-47
2022/08/09 00:54:49;;;;;;;3.65;1.75;;;17.70;72.40;;;;;;5116741;28;20023;-46
2022/08/09 00:57:15;;;;;;;4.80;2.05;;;17.70;72.60;;;;;;5116315;28;20024;-45
2022/08/09 00:59:43;;;;;;;2.47;1.90;;;17.70;72.70;;;;;;5116133;28;20153;-45
2022/08/09 01:02:09;;;;;;;9.05;2.45;;;17.70;72.80;;;;;;5114386;28;20027;-45
2022/08/09 01:04:59;;;;;;;8.23;2.25;;;17.60;72.90;;;;;;5116022;28;20485;-46
2022/08/09 01:07:45;;;;;;;5.85;2.92;;;17.50;73.10;;;;;;5114607;28;20088;-47
2022/08/09 01:10:40;;;;;;;3.38;2.05;;;17.50;73.40;;;;;;5115884;28;20058;-46
2022/08/09 01:13:08;;;;;;;4.20;2.08;;;17.50;73.60;;;;;;5115670;28;20019;-45
2022/08/09 01:15:39;;;;;;;4.15;1.88;;;17.50;73.80;;;;;;5115921;28;20035;-45
2022/08/09 01:18:09;;;;;;;5.55;2.05;;;17.40;73.90;;;;;;5115878;28;20117;-45
2022/08/09 01:20:53;;;;;;;4.43;2.20;;;17.40;74.10;;;;;;5114226;28;20036;-45
2022/08/09 01:23:55;;;;;;;4.63;2.13;;;17.30;74.20;;;;;;5114126;28;20066;-46
2022/08/09 01:26:59;;;;;;;5.93;2.47;;;17.30;74.30;;;;;;5115763;28;20023;-46
2022/08/09 01:29:39;;;;;;;3.75;1.75;;;17.30;74.60;;;;;;5115415;28;20059;-45
2022/08/09 01:32:06;;;;;;;2.65;1.88;;;17.30;74.90;;;;;;5115615;28;20027;-45
2022/08/09 01:34:34;;;;;;;2.85;2.30;;;17.20;75.00;;;;;;5115360;28;20043;-45
2022/08/09 01:37:02;;;;;;;5.15;2.72;;;17.10;75.30;;;;;;5115601;28;20020;-46
2022/08/09 01:39:29;;;;;;;2.47;2.10;;;17.10;75.50;;;;;;5115309;28;20077;-44
2022/08/09 01:41:56;;;;;;;4.82;2.28;;;17.20;75.50;;;;;;5114103;28;20101;-45
2022/08/09 01:44:24;;;;;;;5.18;2.13;;;17.10;75.60;;;;;;5115188;28;20039;-44
2022/08/09 01:46:50;;;;;;;5.65;2.65;;;17.10;75.80;;;;;;5113991;28;20027;-44
2022/08/09 01:49:19;;;;;;;6.18;2.67;;;17.00;76.20;;;;;;5115689;28;20024;-45
2022/08/09 01:52:02;;;;;;;2.90;2.10;;;16.90;76.50;;;;;;5115634;28;20489;-51
2022/08/09 01:54:34;;;;;;;3.42;2.20;;;16.90;76.50;;;;;;5115163;27;20072;-45
2022/08/09 01:57:11;;;;;;;5.55;2.13;;;16.90;76.70;;;;;;5115028;28;20028;-45
2022/08/09 01:59:40;;;;;;;6.13;2.38;;;16.90;76.80;;;;;;5115028;28;20095;-46
2022/08/09 02:02:09;;;;;;;4.68;2.05;;;17.00;76.90;;;;;;5114935;28;20027;-45
2022/08/09 02:04:37;;;;;;;2.78;2.00;;;16.90;77.00;;;;;;5114808;28;20027;-46
2022/08/09 02:07:11;;;;;;;4.90;2.30;;;16.90;77.00;;;;;;5114885;27;20122;-46
2022/08/09 02:10:10;;;;;;;4.50;2.55;;;16.90;77.20;;;;;;5113420;28;20027;-46
2022/08/09 02:12:37;;;;;;;6.18;1.95;;;16.80;77.40;;;;;;5114455;28;20027;-46
2022/08/09 02:15:05;;;;;;;4.22;2.17;;;16.80;77.60;;;;;;5114827;28;20066;-45
2022/08/09 02:17:33;;;;;;;4.55;2.60;;;16.80;77.70;;;;;;5114601;28;20020;-46
2022/08/09 02:19:58;;;;;;;4.20;2.25;;;16.80;77.90;;;;;;5114977;28;20507;-45
2022/08/09 02:22:41;;;;;;;6.28;2.55;;;16.80;78.10;;;;;;5114790;28;20027;-45
2022/08/09 02:25:15;;;;;;;7.15;3.88;;;16.80;78.30;;;;;;5114135;28;20023;-46
2022/08/09 02:27:49;;;;;;;5.47;2.25;;;16.70;78.40;;;;;;5114895;28;20107;-45
2022/08/09 02:30:15;;;;;;;2.33;2.13;;;16.70;78.50;;;;;;5114375;28;20040;-47
2022/08/09 02:32:44;;;;;;;3.08;2.03;;;16.80;78.60;;;;;;5114285;28;20053;-45
2022/08/09 02:35:20;;;;;;;10.15;2.83;;;16.80;78.60;;;;;;5113118;28;20485;-46
2022/08/09 02:37:51;;;;;;;3.58;2.42;;;16.70;78.60;;;;;;5114454;28;20389;-44
2022/08/09 02:40:19;;;;;;;6.07;2.50;;;16.70;78.80;;;;;;5113823;28;20055;-46
2022/08/09 02:42:49;;;;;;;5.47;2.25;;;16.80;78.80;;;;;;5114167;28;20042;-50
2022/08/09 02:45:29;;;;;;;4.07;2.45;;;16.80;78.70;;;;;;5112991;28;20396;-44
2022/08/09 02:48:04;;;;;;;5.53;2.67;;;16.70;78.80;;;;;;5114520;28;20023;-46
2022/08/09 02:51:00;;;;;;;5.00;2.45;;;16.70;79.10;;;;;;5114183;28;20019;-45
2022/08/09 02:53:33;;;;;;;3.60;2.67;;;16.70;79.20;;;;;;5104771;28;20081;-44
2022/08/09 02:55:59;;;;;;;3.60;2.33;;;16.70;79.30;;;;;;5114548;28;20347;-46
2022/08/09 02:58:30;;;;;;;5.15;2.28;;;16.60;79.50;;;;;;5112817;28;20102;-45
2022/08/09 03:00:57;;;;;;;5.07;2.65;;;16.60;79.60;;;;;;5114350;28;20031;-44
2022/08/09 03:03:23;;;;;;;4.63;2.85;;;16.60;79.80;;;;;;5114234;28;20499;-46
2022/08/09 03:05:52;;;;;;;4.38;2.85;;;16.50;79.80;;;;;;5114538;28;20122;-45
2022/08/09 03:08:19;;;;;;;6.20;2.75;;;16.50;80.00;;;;;;5112601;28;20023;-45
2022/08/09 03:10:46;;;;;;;6.40;2.88;;;16.50;80.10;;;;;;5114594;28;20471;-45
2022/08/09 03:13:16;;;;;;;7.18;2.90;;;16.40;80.30;;;;;;5113963;28;20467;-45
2022/08/09 03:15:42;;;;;;;5.82;2.63;;;16.40;80.40;;;;;;5114227;28;20509;-45
2022/08/09 03:18:12;;;;;;;3.85;2.55;;;16.40;80.50;;;;;;5113520;28;20024;-45
2022/08/09 03:20:39;;;;;;;5.13;2.60;;;16.30;80.70;;;;;;5111943;28;20027;-45
2022/08/09 03:23:05;;;;;;;6.63;2.47;;;16.30;80.80;;;;;;5113404;28;20016;-45
2022/08/09 03:25:32;;;;;;;4.22;2.75;;;16.30;81.00;;;;;;5113172;28;20048;-45
2022/08/09 03:28:00;;;;;;;4.10;2.38;;;16.30;81.20;;;;;;5113269;28;20034;-45
2022/08/09 03:30:26;;;;;;;6.28;2.70;;;16.30;81.30;;;;;;5111588;28;20062;-45
2022/08/09 03:32:53;;;;;;;3.53;2.45;;;16.30;81.30;;;;;;5112982;28;20031;-45
2022/08/09 03:35:19;;;;;;;6.75;3.03;;;16.30;81.40;;;;;;5111710;28;20431;-46
2022/08/09 03:37:45;;;;;;;4.80;2.67;;;16.30;81.60;;;;;;5113243;28;20369;-45
2022/08/09 03:40:12;;;;;;;6.97;3.22;;;16.20;81.70;;;;;;5112721;28;20138;-44
2022/08/09 03:42:38;;;;;;;4.72;2.85;;;16.20;81.80;;;;;;5113084;28;20466;-44
2022/08/09 03:45:04;;;;;;;3.08;2.75;;;16.20;81.80;;;;;;5113194;28;20112;-46
2022/08/09 03:47:30;;;;;;;9.45;3.30;;;16.20;81.80;;;;;;5113138;28;20061;-45
2022/08/09 19:27:11;;;;;;;1.55;1.30;;;24.00;46.90;;;;;;5070922;28;20383;-48
2022/08/09 19:29:38;;;;;;;3.10;1.35;;;23.90;46.80;;;;;;5070373;28;20079;-47
2022/08/09 19:32:07;;;;;;;3.17;1.50;;;23.90;46.90;;;;;;5070292;28;20112;-47
2022/08/09 19:34:33;;;;;;;4.87;2.43;;;23.90;46.90;;;;;;5070659;28;20035;-48
2022/08/09 19:36:59;;;;;;;6.07;2.20;;;23.80;47.00;;;;;;5070484;28;20025;-46
2022/08/09 19:39:26;;;;;;;1.20;1.10;;;23.80;47.00;;;;;;5069963;28;20024;-46
2022/08/09 19:41:53;;;;;;;2.97;1.30;;;23.80;47.20;;;;;;5070540;28;20025;-48
2022/08/09 19:44:19;;;;;;;2.10;1.50;;;23.70;47.00;;;;;;5070314;28;20025;-47
2022/08/09 19:46:44;;;;;;;4.45;1.52;;;23.70;47.20;;;;;;5070269;28;20473;-49
2022/08/09 19:49:10;;;;;;;4.95;1.33;;;23.60;47.30;;;;;;5069167;28;20050;-47
2022/08/09 19:51:36;;;;;;;2.55;1.08;;;23.60;47.40;;;;;;5070091;28;20025;-47
2022/08/09 19:54:02;;;;;;;5.45;1.65;;;23.50;47.40;;;;;;5070219;28;20029;-57
2022/08/09 19:56:28;;;;;;;3.63;1.60;;;23.50;47.60;;;;;;5070011;28;20031;-48
2022/08/09 19:58:55;;;;;;;2.50;1.65;;;23.50;47.60;;;;;;5068330;28;20024;-46
2022/08/09 20:01:23;;;;;;;4.22;2.60;;;23.40;47.60;;;;;;5069565;28;20029;-45
2022/08/09 20:03:49;;;;;;;2.13;1.45;;;23.30;47.70;;;;;;5069803;28;20033;-46
2022/08/09 20:06:16;;;;;;;4.65;1.73;;;23.30;47.90;;;;;;5069737;28;20070;-48
2022/08/09 20:08:42;;;;;;;2.10;1.33;;;23.30;48.00;;;;;;5069859;28;20017;-47
2022/08/09 20:11:08;;;;;;;4.00;1.38;;;23.30;48.20;;;;;;5070524;28;20069;-46
2022/08/09 20:13:34;;;;;;;1.00;0.98;;;23.30;48.30;;;;;;5068301;28;20025;-45
2022/08/09 20:16:00;;;;;;;3.42;1.27;;;23.20;48.40;;;;;;5069290;28;20036;-46
2022/08/09 20:18:26;;;;;;;2.60;0.90;;;23.20;48.50;;;;;;5069514;28;20380;-46
2022/08/09 20:20:52;;;;;;;4.43;1.40;;;23.10;48.80;;;;;;5069488;28;20325;-46
2022/08/09 20:23:18;;;;;;;1.50;1.23;;;23.00;48.90;;;;;;5069325;28;20079;-47
2022/08/09 20:25:45;;;;;;;1.23;0.98;;;23.00;49.20;;;;;;5067858;28;20408;-45
2022/08/09 20:28:10;;;;;;;1.90;1.20;;;22.90;49.30;;;;;;5067768;28;20017;-46
2022/08/09 20:30:36;;;;;;;2.20;1.00;;;22.90;49.40;;;;;;5069307;28;20025;-46
2022/08/09 20:33:02;;;;;;;2.33;1.50;;;22.90;49.50;;;;;;5069174;28;20020;-45
2022/08/09 20:35:28;;;;;;;3.63;1.60;;;22.90;49.70;;;;;;5069020;28;20044;-47
2022/08/09 20:37:54;;;;;;;3.85;1.52;;;22.80;49.80;;;;;;5059312;28;20025;-46
2022/08/09 20:40:20;;;;;;;2.08;1.35;;;22.80;49.80;;;;;;5055628;28;20021;-47
2022/08/09 20:42:45;;;;;;;1.13;0.90;;;22.80;50.00;;;;;;5054255;28;20029;-47
2022/08/09 20:45:11;;;;;;;2.97;1.50;;;22.80;50.30;;;;;;5055532;28;20031;-46
2022/08/09 20:47:37;;;;;;;1.88;1.52;;;22.70;50.30;;;;;;5056390;28;20040;-43
2022/08/09 20:50:03;;;;;;;3.03;1.15;;;22.70;50.50;;;;;;5054975;28;20048;-39
2022/08/09 20:52:29;;;;;;;1.80;1.50;;;22.70;50.70;;;;;;5056221;28;20025;-38
2022/08/09 20:54:55;;;;;;;4.10;2.00;;;22.60;50.80;;;;;;5057005;28;20469;-39
2022/08/09 20:57:21;;;;;;;1.05;0.98;;;22.50;51.10;;;;;;5056337;28;20520;-39
2022/08/09 20:59:46;;;;;;;2.08;1.08;;;22.50;51.10;;;;;;5055776;28;20113;-39
2022/08/09 21:02:16;;;;;;;1.25;1.00;;;22.50;51.20;;;;;;5056162;28;20468;-39
2022/08/09 21:04:42;;;;;;;4.07;1.38;;;22.50;51.30;;;;;;5054223;28;20025;-38
2022/08/09 21:07:09;;;;;;;3.70;1.48;;;22.40;51.50;;;;;;5055443;28;20040;-38
2022/08/09 21:09:35;;;;;;;3.53;1.73;;;22.40;51.50;;;;;;5055191;28;20033;-39
2022/08/09 21:12:01;;;;;;;6.32;1.45;;;22.40;51.60;;;;;;5055493;28;20479;-38
2022/08/09 21:14:26;;;;;;;2.60;1.02;;;22.30;51.80;;;;;;5055185;28;20056;-38
2022/08/09 21:16:53;;;;;;;1.27;1.10;;;22.30;51.90;;;;;;5056062;28;20025;-38
2022/08/09 21:19:20;;;;;;;5.47;1.67;;;22.30;52.10;;;;;;5055066;28;20029;-38
2022/08/09 21:21:46;;;;;;;2.42;1.80;;;22.20;52.20;;;;;;5055694;28;20376;-39
2022/08/09 21:24:12;;;;;;;2.50;1.33;;;22.20;52.30;;;;;;5055404;28;20029;-40
2022/08/09 21:26:38;;;;;;;2.17;1.13;;;22.20;52.30;;;;;;5054976;28;20063;-39
2022/08/09 21:29:04;;;;;;;3.35;1.45;;;22.20;52.30;;;;;;5054541;28;20032;-40
2022/08/09 21:31:29;;;;;;;3.60;1.67;;;22.10;52.50;;;;;;5055867;28;20083;-38
2022/08/09 21:33:55;;;;;;;1.55;1.10;;;22.10;52.60;;;;;;5054960;28;20108;-40
2022/08/09 21:36:23;;;;;;;2.95;1.40;;;22.10;52.70;;;;;;5055500;28;20028;-40
2022/08/09 21:38:48;;;;;;;2.90;1.70;;;22.00;52.70;;;;;;5053914;28;20104;-46
2022/08/09 21:41:14;;;;;;;2.45;1.50;;;22.00;52.80;;;;;;5053878;28;20068;-46
2022/08/09 21:43:40;;;;;;;3.90;1.50;;;22.00;52.90;;;;;;5055090;28;20025;-46
2022/08/09 21:46:05;;;;;;;3.95;1.00;;;21.90;53.10;;;;;;5053435;28;20029;-46
2022/08/09 21:48:31;;;;;;;1.75;1.27;;;21.90;53.30;;;;;;5053714;28;20151;-46
2022/08/09 21:50:57;;;;;;;3.75;1.40;;;21.90;53.30;;;;;;5054214;28;20511;-46
2022/08/09 21:53:22;;;;;;;2.20;1.60;;;21.80;53.40;;;;;;5054428;28;20059;-46
2022/08/09 21:55:48;;;;;;;9.13;2.10;;;21.80;53.60;;;;;;5054555;28;20040;-45
2022/08/09 21:58:14;;;;;;;1.40;1.02;;;21.80;53.80;;;;;;5054930;28;20381;-46
2022/08/09 22:00:39;;;;;;;2.13;1.48;;;21.70;54.00;;;;;;5054724;28;20020;-48
2022/08/09 22:03:08;;;;;;;2.17;1.52;;;21.70;54.20;;;;;;5054254;28;20032;-47
2022/08/09 22:05:35;;;;;;;3.15;2.20;;;21.70;54.30;;;;;;5054232;28;20098;-47
2022/08/09 22:08:01;;;;;;;3.20;1.45;;;21.60;54.60;;;;;;5054276;28;20017;-46
2022/08/09 22:10:27;;;;;;;2.13;1.42;;;21.60;54.80;;;;;;5054088;28;20029;-46
2022/08/09 22:12:52;;;;;;;4.25;1.75;;;21.50;55.00;;;;;;5053308;28;20025;-46
2022/08/09 22:15:18;;;;;;;3.67;1.42;;;21.50;55.20;;;;;;5054244;28;20029;-46
2022/08/09 22:17:44;;;;;;;2.72;1.63;;;21.40;55.30;;;;;;5054223;28;20021;-47
2022/08/09 22:20:11;;;;;;;1.40;1.23;;;21.40;55.60;;;;;;5053886;28;20380;-47
2022/08/09 22:22:38;;;;;;;4.63;1.67;;;21.30;55.80;;;;;;5052503;28;20031;-46
2022/08/09 22:25:04;;;;;;;5.97;2.70;;;21.30;56.00;;;;;;5053729;28;20469;-47
2022/08/09 22:27:30;;;;;;;2.78;1.80;;;21.30;56.20;;;;;;5054335;28;20024;-46
2022/08/09 22:29:55;;;;;;;1.80;1.40;;;21.30;56.50;;;;;;5053871;28;20021;-46
2022/08/09 22:32:21;;;;;;;2.92;1.35;;;21.30;56.80;;;;;;5054867;28;20017;-48
2022/08/09 22:34:48;;;;;;;2.88;1.65;;;21.20;57.10;;;;;;5055162;28;20385;-46
2022/08/09 22:37:14;;;;;;;7.80;1.40;;;21.10;57.50;;;;;;5053883;28;20024;-47
2022/08/09 22:39:40;;;;;;;5.93;1.40;;;21.10;57.70;;;;;;5053533;28;20067;-47
2022/08/09 22:42:06;;;;;;;1.45;1.23;;;21.00;58.10;;;;;;5054655;28;20028;-50
2022/08/09 22:44:32;;;;;;;2.47;1.80;;;21.00;58.40;;;;;;5053595;28;20503;-46
2022/08/09 22:46:57;;;;;;;2.42;1.42;;;20.90;58.90;;;;;;5053698;28;20067;-46
2022/08/09 22:49:24;;;;;;;2.58;1.48;;;20.80;59.20;;;;;;5054164;28;20029;-46
2022/08/09 22:51:49;;;;;;;3.80;1.60;;;20.80;59.40;;;;;;5054314;28;20451;-46
2022/08/09 22:54:16;;;;;;;2.83;0.98;;;20.80;59.70;;;;;;5052171;28;20481;-45
2022/08/09 22:56:41;;;;;;;2.78;1.63;;;20.70;59.90;;;;;;5051990;28;20311;-47
2022/08/09 22:59:07;;;;;;;2.55;1.10;;;20.70;60.20;;;;;;5053404;28;20036;-46
2022/08/09 23:01:33;;;;;;;4.93;1.20;;;20.60;60.50;;;;;;5051718;28;20044;-46
2022/08/09 23:03:58;;;;;;;2.63;1.25;;;20.60;60.80;;;;;;5053464;28;20353;-46
2022/08/09 23:06:24;;;;;;;2.40;1.13;;;20.50;61.00;;;;;;5053145;28;20056;-45
2022/08/09 23:08:50;;;;;;;1.58;1.35;;;20.50;61.20;;;;;;5052821;28;20095;-47
2022/08/09 23:11:20;;;;;;;4.07;1.67;;;20.50;61.40;;;;;;5052956;28;20417;-46
2022/08/09 23:13:50;;;;;;;;;;;20.40;61.50;;;;;;5053648;28;20017;-47
2022/08/09 23:16:18;;;;;;;1.92;1.40;;;20.40;61.60;;;;;;5052925;28;19905;-46
2022/08/09 23:18:44;;;;;;;4.00;1.50;;;20.30;61.90;;;;;;5051888;28;20485;-45
2022/08/09 23:21:11;;;;;;;2.05;1.42;;;20.30;62.10;;;;;;5052880;28;20036;-48
2022/08/09 23:23:37;;;;;;;5.50;3.53;;;20.30;62.20;;;;;;5052535;28;20087;-46
2022/08/09 23:26:04;;;;;;;5.13;1.92;;;20.20;62.50;;;;;;5052597;28;20128;-48
2022/08/09 23:28:31;;;;;;;1.95;1.38;;;20.10;62.70;;;;;;5053654;28;20021;-47
2022/08/09 23:30:57;;;;;;;1.25;1.15;;;20.10;62.80;;;;;;5052804;28;20029;-46
2022/08/09 23:33:23;;;;;;;2.17;1.52;;;20.10;63.20;;;;;;5051551;28;20425;-47
2022/08/09 23:35:50;;;;;;;2.92;1.50;;;20.00;63.40;;;;;;5051507;28;20067;-45
2022/08/09 23:38:17;;;;;;;1.40;1.02;;;20.00;63.70;;;;;;5053315;28;20021;-47
2022/08/09 23:40:43;;;;;;;1.92;1.45;;;19.90;63.90;;;;;;5053539;28;20346;-46
2022/08/09 23:43:08;;;;;;;3.50;1.55;;;19.80;64.20;;;;;;5053222;28;20035;-46
2022/08/09 23:45:34;;;;;;;1.30;1.25;;;19.80;64.60;;;;;;5052965;28;20029;-47
2022/08/09 23:48:00;;;;;;;4.68;1.60;;;19.80;64.80;;;;;;5052725;28;20029;-46
2022/08/09 23:50:25;;;;;;;8.25;1.65;;;19.80;65.00;;;;;;5052699;28;20071;-48
2022/08/09 23:52:51;;;;;;;4.55;2.22;;;19.70;65.30;;;;;;5052708;28;20020;-46
2022/08/09 23:55:17;;;;;;;6.25;2.45;;;19.70;65.60;;;;;;5051010;28;20040;-47
2022/08/09 23:57:43;;;;;;;1.92;1.52;;;19.60;65.80;;;;;;5052532;28;20024;-45
